Time;durP1;ratioP1;P1;durP2;ratioP2;P2;SDS_P1;SDS_P2;PMS_P1;PMS_P2;Temp;Humidity;BMP_temperature;BMP_pressure;BME280_temperature;BME280_humidity;BME280_pressure;Samples;Min_cycle;Max_cycle;Signal;HPM_P1;HPM_P2
2021/10/01 00:02:12;;;;;;;6.90;3.60;;;6.80;99.90;;;;;;4975445;28;20469;-72
2021/10/01 00:04:38;;;;;;;10.02;3.67;;;6.80;99.90;;;;;;4974220;28;20093;-72
2021/10/01 00:07:04;;;;;;;4.10;3.17;;;6.80;99.90;;;;;;4984352;28;20030;-73
2021/10/01 00:09:29;;;;;;;12.77;3.90;;;6.70;99.90;;;;;;4982041;28;20366;-72
2021/10/01 00:11:55;;;;;;;5.60;3.55;;;6.70;99.90;;;;;;4975505;28;20038;-72
2021/10/01 00:14:23;;;;;;;5.47;3.08;;;6.70;99.90;;;;;;4972917;28;20030;-72
2021/10/01 00:16:49;;;;;;;5.50;4.22;;;6.70;99.90;;;;;;4974289;28;20027;-72
2021/10/01 00:19:16;;;;;;;4.43;3.25;;;6.60;99.90;;;;;;4974356;28;20035;-73
2021/10/01 00:21:42;;;;;;;7.57;4.03;;;6.60;99.90;;;;;;4974634;28;20019;-71
2021/10/01 00:24:08;;;;;;;6.80;3.22;;;6.50;99.90;;;;;;4974550;28;20477;-72
2021/10/01 00:26:35;;;;;;;6.95;2.78;;;6.50;99.90;;;;;;4974243;28;20023;-71
2021/10/01 00:29:02;;;;;;;4.13;3.10;;;6.40;99.90;;;;;;4972850;28;20054;-71
2021/10/01 00:31:27;;;;;;;5.60;3.40;;;6.40;99.90;;;;;;4972996;28;20653;-72
2021/10/01 00:33:53;;;;;;;6.65;4.15;;;6.40;99.90;;;;;;4974835;28;20044;-71
2021/10/01 00:36:19;;;;;;;4.68;3.67;;;6.40;99.90;;;;;;4973870;28;20037;-72
2021/10/01 00:38:44;;;;;;;5.18;3.65;;;6.40;99.90;;;;;;4973300;28;20037;-72
2021/10/01 00:41:10;;;;;;;5.45;3.53;;;6.30;99.90;;;;;;4974140;28;20019;-73
2021/10/01 00:43:35;;;;;;;4.28;3.53;;;6.30;99.90;;;;;;4972650;28;20054;-71
2021/10/01 00:46:01;;;;;;;6.50;4.05;;;6.30;99.90;;;;;;4973133;28;20042;-71
2021/10/01 00:48:27;;;;;;;4.38;3.85;;;6.40;99.90;;;;;;4974012;28;20695;-72
2021/10/01 00:50:52;;;;;;;4.53;3.40;;;6.30;99.90;;;;;;4974188;28;20026;-73
2021/10/01 00:53:18;;;;;;;7.57;3.58;;;6.30;99.90;;;;;;4973843;28;20473;-73
2021/10/01 00:55:44;;;;;;;5.85;4.07;;;6.30;99.90;;;;;;4971771;28;20038;-73
2021/10/01 00:58:10;;;;;;;4.75;3.58;;;6.30;99.90;;;;;;4973522;28;20042;-72
2021/10/01 01:00:47;;;;;;;6.50;4.13;;;6.20;99.90;;;;;;4972418;28;20724;-71
2021/10/01 01:03:13;;;;;;;10.40;4.30;;;6.10;99.90;;;;;;4973706;28;20023;-72
2021/10/01 01:06:07;;;;;;;6.43;3.80;;;6.10;99.90;;;;;;4972825;28;20042;-72
2021/10/01 01:08:43;;;;;;;4.88;3.35;;;6.10;99.90;;;;;;4972547;28;20051;-72
2021/10/01 01:11:43;;;;;;;6.82;3.90;;;6.00;99.90;;;;;;4973419;28;20041;-73
2021/10/01 01:14:23;;;;;;;4.15;3.53;;;6.00;99.90;;;;;;4971936;28;20034;-72
2021/10/01 01:16:49;;;;;;;3.92;3.63;;;5.90;99.90;;;;;;4972231;28;20027;-72
2021/10/01 01:19:56;;;;;;;6.55;3.42;;;5.90;99.90;;;;;;4973339;28;20065;-72
2021/10/01 01:22:30;;;;;;;7.97;3.65;;;5.90;99.90;;;;;;4966394;28;20041;-72
2021/10/01 01:25:03;;;;;;;5.43;3.70;;;5.90;99.90;;;;;;4972901;28;20481;-72
2021/10/01 01:27:46;;;;;;;7.60;4.03;;;5.90;99.90;;;;;;4972967;28;20038;-71
2021/10/01 01:30:15;;;;;;;5.97;4.72;;;5.90;99.90;;;;;;4972270;28;20051;-71
2021/10/01 01:32:44;;;;;;;6.05;4.30;;;5.90;99.90;;;;;;4971948;28;20074;-72
2021/10/01 01:35:19;;;;;;;7.85;4.65;;;5.90;99.90;;;;;;4972457;28;20029;-72
2021/10/01 01:37:47;;;;;;;7.13;4.47;;;5.80;99.90;;;;;;4972839;28;20039;-72
2021/10/01 01:40:15;;;;;;;10.25;4.45;;;5.80;99.90;;;;;;4971666;28;20481;-72
2021/10/01 01:42:43;;;;;;;5.32;4.03;;;5.90;99.90;;;;;;4971692;28;20045;-71
2021/10/01 01:45:12;;;;;;;7.63;4.35;;;5.80;99.90;;;;;;4972450;28;20023;-71
2021/10/01 01:47:39;;;;;;;4.28;3.85;;;5.70;99.90;;;;;;4973139;28;20019;-71
2021/10/01 01:50:07;;;;;;;6.88;4.53;;;5.70;99.90;;;;;;4972975;28;20085;-71
2021/10/01 01:52:34;;;;;;;10.88;4.55;;;5.70;99.90;;;;;;4973101;28;20106;-71
2021/10/01 01:55:00;;;;;;;6.55;4.32;;;5.70;99.90;;;;;;4972196;28;20086;-73
2021/10/01 01:57:27;;;;;;;9.82;4.25;;;5.70;99.90;;;;;;4972740;28;20019;-73
2021/10/01 01:59:54;;;;;;;7.43;4.25;;;5.70;99.90;;;;;;4972729;28;20077;-71
2021/10/01 02:02:21;;;;;;;11.10;4.57;;;5.80;99.90;;;;;;4972942;28;20023;-72
2021/10/01 02:04:49;;;;;;;5.63;4.35;;;5.80;99.90;;;;;;5053394;23;20026;-74
2021/10/01 02:07:17;;;;;;;8.07;4.15;;;5.80;99.90;;;;;;4972477;28;20059;-72
2021/10/01 02:09:44;;;;;;;8.55;4.45;;;5.70;99.90;;;;;;4973078;28;20033;-72
2021/10/01 02:12:10;;;;;;;6.47;4.32;;;5.70;99.90;;;;;;4973415;28;20396;-70
2021/10/01 02:14:41;;;;;;;6.95;4.45;;;5.60;99.90;;;;;;4973196;28;20041;-70
2021/10/01 02:17:10;;;;;;;6.73;4.10;;;5.50;99.90;;;;;;4973527;28;20034;-72
2021/10/01 02:19:37;;;;;;;4.95;4.00;;;5.60;99.90;;;;;;4972988;28;20023;-71
2021/10/01 02:22:04;;;;;;;7.57;4.25;;;5.50;99.90;;;;;;4972833;28;20029;-70
2021/10/01 02:24:31;;;;;;;4.85;4.18;;;5.50;99.90;;;;;;4972352;28;20034;-71
2021/10/01 02:27:06;;;;;;;7.32;3.55;;;5.60;99.90;;;;;;4973225;28;20407;-72
2021/10/01 02:29:39;;;;;;;4.75;3.65;;;5.50;99.90;;;;;;4972962;28;20401;-71
2021/10/01 02:32:34;;;;;;;6.28;3.22;;;5.40;99.90;;;;;;4973186;28;20023;-72
2021/10/01 02:35:02;;;;;;;4.50;3.47;;;5.20;99.90;;;;;;4972235;28;20524;-71
2021/10/01 02:37:28;;;;;;;4.47;3.60;;;5.30;99.90;;;;;;4973096;28;20110;-71
2021/10/01 02:39:55;;;;;;;6.68;3.83;;;5.40;99.90;;;;;;4973309;28;20538;-71
2021/10/01 02:42:23;;;;;;;6.75;3.95;;;5.40;99.90;;;;;;4973219;28;20073;-70
2021/10/01 02:44:50;;;;;;;7.18;3.80;;;5.40;99.90;;;;;;4972591;28;20019;-71
2021/10/01 02:47:16;;;;;;;11.73;4.10;;;5.40;99.90;;;;;;4971846;28;20019;-71
2021/10/01 02:49:42;;;;;;;9.50;3.97;;;5.30;99.90;;;;;;4973096;28;20481;-71
2021/10/01 02:52:48;;;;;;;8.38;4.15;;;5.40;99.90;;;;;;4971263;28;20037;-71
2021/10/01 02:55:35;;;;;;;5.25;3.60;;;5.40;99.90;;;;;;4961108;28;20122;-71
2021/10/01 02:58:15;;;;;;;6.47;3.97;;;5.40;99.90;;;;;;4977290;28;20027;-71
2021/10/01 03:00:41;;;;;;;6.90;3.80;;;5.30;99.90;;;;;;4976950;28;20019;-71
2021/10/01 03:03:17;;;;;;;7.97;3.92;;;5.30;99.90;;;;;;4980950;28;20034;-71
2021/10/01 03:05:43;;;;;;;5.15;3.72;;;5.30;99.90;;;;;;4980429;28;20138;-71
2021/10/01 03:08:14;;;;;;;7.13;4.25;;;5.40;99.90;;;;;;4986868;28;20110;-71
2021/10/01 03:10:42;;;;;;;8.00;4.28;;;5.30;99.90;;;;;;4986082;28;20046;-71
2021/10/01 03:13:10;;;;;;;4.50;3.95;;;5.30;99.90;;;;;;4986149;28;20018;-71
2021/10/01 03:15:36;;;;;;;5.63;4.60;;;5.20;99.90;;;;;;4984971;28;20054;-72
2021/10/01 03:18:02;;;;;;;7.78;4.30;;;5.20;99.90;;;;;;4973699;28;20393;-71
2021/10/01 03:20:27;;;;;;;6.25;4.00;;;5.20;99.90;;;;;;4966672;28;20382;-72
2021/10/01 03:22:54;;;;;;;6.35;4.88;;;5.20;99.90;;;;;;4966494;29;20023;-72
2021/10/01 03:25:21;;;;;;;5.72;4.07;;;5.20;99.90;;;;;;4964915;28;20024;-71
2021/10/01 03:27:47;;;;;;;8.05;4.90;;;5.30;99.90;;;;;;4966052;28;20024;-71
2021/10/01 03:30:13;;;;;;;6.03;4.38;;;5.20;99.90;;;;;;4965591;29;20037;-71
2021/10/01 03:32:39;;;;;;;14.27;4.72;;;5.20;99.90;;;;;;4965646;29;20090;-72
2021/10/01 03:35:09;;;;;;;9.60;4.85;;;5.20;99.90;;;;;;4965079;29;20430;-71
2021/10/01 03:37:35;;;;;;;11.60;4.82;;;5.20;99.90;;;;;;4965252;28;20023;-74
2021/10/01 03:40:09;;;;;;;6.78;4.70;;;5.20;99.90;;;;;;4956858;28;20102;-71
2021/10/01 03:42:35;;;;;;;9.00;4.93;;;5.20;99.90;;;;;;4956513;29;20031;-71
2021/10/01 03:45:01;;;;;;;10.63;5.25;;;5.20;99.90;;;;;;4955675;28;20087;-71
2021/10/01 03:47:27;;;;;;;8.60;4.70;;;5.10;99.90;;;;;;4963635;28;20034;-71
2021/10/01 03:49:53;;;;;;;7.97;5.18;;;5.10;99.90;;;;;;4974300;28;20342;-72
2021/10/01 03:52:18;;;;;;;8.88;5.05;;;5.10;99.90;;;;;;4974834;28;20023;-71
2021/10/01 03:54:48;;;;;;;7.95;4.95;;;5.10;99.90;;;;;;4974368;28;20101;-70
2021/10/01 03:57:14;;;;;;;7.40;4.55;;;5.10;99.90;;;;;;4975122;28;20081;-72
2021/10/01 03:59:40;;;;;;;12.38;5.22;;;5.10;99.90;;;;;;4976650;28;20507;-70
2021/10/01 04:02:06;;;;;;;8.23;5.07;;;5.00;99.90;;;;;;4976265;28;20027;-70
2021/10/01 04:04:32;;;;;;;11.25;5.03;;;4.90;99.90;;;;;;4973174;28;20030;-69
2021/10/01 04:06:58;;;;;;;8.57;5.50;;;5.00;99.90;;;;;;4974621;28;20488;-70
2021/10/01 04:09:24;;;;;;;10.57;5.60;;;5.00;99.90;;;;;;4975243;28;20492;-69
2021/10/01 04:11:52;;;;;;;7.00;4.80;;;5.00;99.90;;;;;;4974963;28;20030;-71
2021/10/01 04:14:18;;;;;;;9.10;4.78;;;4.90;99.90;;;;;;4973157;28;20029;-69
2021/10/01 04:16:44;;;;;;;5.95;4.78;;;4.90;99.90;;;;;;4974593;28;20035;-69
2021/10/01 04:19:10;;;;;;;5.53;4.57;;;4.80;99.90;;;;;;4974658;28;20066;-70
2021/10/01 04:21:36;;;;;;;7.03;5.10;;;4.80;99.90;;;;;;4974563;28;20026;-70
2021/10/01 04:24:01;;;;;;;12.90;5.50;;;4.90;99.90;;;;;;4974712;28;20027;-70
2021/10/01 04:26:27;;;;;;;7.43;5.13;;;4.90;99.90;;;;;;4973799;28;20456;-70
2021/10/01 04:28:53;;;;;;;6.55;5.38;;;4.80;99.90;;;;;;4974276;28;20377;-71
2021/10/01 04:31:19;;;;;;;6.30;4.75;;;4.90;99.90;;;;;;4976945;28;20031;-70
2021/10/01 04:33:45;;;;;;;8.38;4.95;;;4.80;99.90;;;;;;4975250;28;20034;-70
2021/10/01 04:36:13;;;;;;;6.38;4.88;;;4.80;99.90;;;;;;4973696;28;20031;-70
2021/10/01 04:38:40;;;;;;;10.63;5.38;;;4.80;99.90;;;;;;4974437;28;20031;-70
2021/10/01 04:41:06;;;;;;;6.63;4.38;;;4.80;99.90;;;;;;4973503;28;20441;-70
2021/10/01 04:43:32;;;;;;;10.15;5.07;;;4.70;99.90;;;;;;4973536;28;20034;-70
2021/10/01 04:45:58;;;;;;;8.18;4.82;;;4.70;99.90;;;;;;4976380;28;20026;-71
2021/10/01 04:48:23;;;;;;;5.60;4.88;;;4.70;99.90;;;;;;4982316;28;20026;-71
2021/10/01 04:50:49;;;;;;;7.78;4.97;;;4.70;99.90;;;;;;4978179;28;20050;-69
2021/10/01 04:53:15;;;;;;;6.18;5.25;;;4.60;99.90;;;;;;4974401;28;20125;-70
2021/10/01 04:55:41;;;;;;;9.35;5.40;;;4.70;99.90;;;;;;4973562;28;20030;-70
2021/10/01 04:58:07;;;;;;;12.00;5.20;;;4.60;99.90;;;;;;4973682;28;20027;-72
2021/10/01 05:00:34;;;;;;;5.82;4.88;;;4.60;99.90;;;;;;4973924;28;20130;-71
2021/10/01 05:03:00;;;;;;;7.63;5.15;;;4.60;99.90;;;;;;4972393;28;20035;-70
2021/10/01 05:05:26;;;;;;;7.32;4.47;;;4.60;99.90;;;;;;4972649;28;20033;-70
2021/10/01 05:07:51;;;;;;;8.45;5.28;;;4.70;99.90;;;;;;4973857;28;20031;-71
2021/10/01 05:10:17;;;;;;;8.30;4.93;;;4.60;99.90;;;;;;4973485;28;20031;-69
2021/10/01 05:12:45;;;;;;;7.45;4.68;;;4.60;99.90;;;;;;4973418;28;20035;-71
2021/10/01 05:15:11;;;;;;;8.43;4.13;;;4.60;99.90;;;;;;4970818;28;20030;-70
2021/10/01 05:17:39;;;;;;;8.48;3.78;;;4.60;99.90;;;;;;4973863;28;20027;-71
2021/10/01 05:20:08;;;;;;;10.20;4.45;;;4.50;99.90;;;;;;4973705;28;20026;-71
2021/10/01 05:22:34;;;;;;;8.55;4.63;;;4.50;99.90;;;;;;4964867;28;20161;-78
2021/10/01 05:25:01;;;;;;;10.15;4.53;;;4.60;99.90;;;;;;4967844;28;20023;-77
2021/10/01 05:27:28;;;;;;;6.10;4.07;;;4.60;99.90;;;;;;4972710;28;20405;-76
2021/10/01 05:29:54;;;;;;;9.60;4.88;;;4.70;99.90;;;;;;4972823;28;20037;-76
2021/10/01 05:32:19;;;;;;;7.10;4.70;;;4.60;99.90;;;;;;4973121;28;20039;-76
2021/10/01 05:34:46;;;;;;;8.00;5.20;;;4.50;99.90;;;;;;4971550;28;20549;-75
2021/10/01 05:37:12;;;;;;;8.68;4.68;;;4.60;99.90;;;;;;4973004;28;20031;-75
2021/10/01 05:39:37;;;;;;;7.75;5.35;;;4.60;99.90;;;;;;4972790;28;20034;-76
2021/10/01 05:42:03;;;;;;;5.68;4.68;;;4.60;99.90;;;;;;4972782;28;20105;-76
2021/10/01 05:44:29;;;;;;;9.48;5.10;;;4.60;99.90;;;;;;4985052;28;20043;-76
2021/10/01 05:46:55;;;;;;;10.98;5.28;;;4.60;99.90;;;;;;4988697;28;20031;-76
2021/10/01 05:49:27;;;;;;;6.80;4.93;;;4.50;99.90;;;;;;4982451;28;20045;-76
2021/10/01 05:51:59;;;;;;;9.98;5.03;;;4.50;99.90;;;;;;4954375;28;20031;-74
2021/10/01 05:54:25;;;;;;;8.15;5.25;;;4.60;99.90;;;;;;4972632;28;20046;-74
2021/10/01 05:56:56;;;;;;;6.93;4.88;;;4.70;99.90;;;;;;4972925;28;20022;-73
2021/10/01 05:59:23;;;;;;;7.45;5.13;;;4.80;99.90;;;;;;4971448;28;20635;-74
2021/10/01 06:01:49;;;;;;;11.43;5.47;;;5.00;99.90;;;;;;4972901;28;20023;-74
2021/10/01 06:04:15;;;;;;;11.13;5.47;;;5.00;99.90;;;;;;4971536;28;20027;-76
2021/10/01 06:06:41;;;;;;;11.57;6.22;;;5.20;99.90;;;;;;4972645;28;20031;-75
2021/10/01 06:09:11;;;;;;;9.65;5.55;;;5.30;99.90;;;;;;4973682;28;20043;-76
2021/10/01 06:11:38;;;;;;;9.65;5.60;;;5.30;99.90;;;;;;4972728;28;20519;-74
2021/10/01 06:14:08;;;;;;;10.77;6.00;;;5.40;99.90;;;;;;4972616;28;20033;-75
2021/10/01 06:16:34;;;;;;;7.78;4.95;;;5.40;99.90;;;;;;4972367;28;20078;-74
2021/10/01 06:19:00;;;;;;;10.43;4.53;;;5.40;99.90;;;;;;4972644;28;20054;-74
2021/10/01 06:21:30;;;;;;;9.00;4.20;;;5.30;99.90;;;;;;4972371;28;20093;-73
2021/10/01 06:23:56;;;;;;;6.60;4.45;;;5.20;99.90;;;;;;4972876;28;20030;-73
2021/10/01 06:26:22;;;;;;;5.10;4.28;;;5.30;99.90;;;;;;4972945;28;20027;-73
2021/10/01 06:28:47;;;;;;;6.53;4.90;;;5.40;99.90;;;;;;4972642;28;20508;-75
2021/10/01 06:31:13;;;;;;;9.30;4.72;;;5.40;99.90;;;;;;4972628;28;20053;-74
2021/10/01 06:33:40;;;;;;;17.10;9.05;;;5.50;99.90;;;;;;4972463;28;20116;-74
2021/10/01 06:36:06;;;;;;;19.58;9.73;;;5.30;99.90;;;;;;4970829;28;20045;-75
2021/10/01 06:38:31;;;;;;;22.90;10.77;;;5.40;99.90;;;;;;4974681;28;20557;-75
2021/10/01 06:40:58;;;;;;;13.45;8.77;;;5.40;99.90;;;;;;4976612;28;20035;-75
2021/10/01 06:43:26;;;;;;;11.32;6.88;;;5.40;99.90;;;;;;4976588;28;20489;-78
2021/10/01 06:45:55;;;;;;;10.15;6.05;;;5.60;99.90;;;;;;4974902;28;20086;-75
2021/10/01 06:48:31;;;;;;;7.28;4.88;;;5.70;99.90;;;;;;4976310;28;20031;-75
2021/10/01 07:21:37;;;;;;;8.43;3.63;;;6.00;99.90;;;;;;4975351;28;20038;-74
2021/10/01 08:20:42;;;;;;;3.55;2.25;;;11.50;99.90;;;;;;4974442;28;20106;-76
2021/10/01 08:23:09;;;;;;;3.95;2.30;;;11.20;99.90;;;;;;4969554;28;20070;-76
2021/10/01 08:25:35;;;;;;;2.10;1.90;;;10.90;99.90;;;;;;4971242;28;20019;-76
2021/10/01 08:28:02;;;;;;;2.60;1.77;;;10.90;99.90;;;;;;5048680;22;20056;-80
2021/10/01 08:30:28;;;;;;;6.05;2.35;;;11.10;99.90;;;;;;5004118;28;20096;-79
2021/10/01 08:32:54;;;;;;;4.40;2.25;;;11.80;99.90;;;;;;5003517;28;20025;-79
2021/10/01 08:35:22;;;;;;;2.45;1.88;;;12.70;99.90;;;;;;5003377;28;20080;-80
2021/10/01 08:37:52;;;;;;;4.45;1.80;;;13.80;99.90;;;;;;5017961;28;20020;-80
2021/10/01 08:40:19;;;;;;;3.03;2.20;;;13.50;99.90;;;;;;5024018;28;20018;-80
2021/10/01 08:42:46;;;;;;;2.45;1.90;;;13.80;99.90;;;;;;5020689;28;20022;-80
2021/10/01 08:45:14;;;;;;;5.05;2.40;;;14.10;99.90;;;;;;5022308;28;20053;-80
2021/10/01 08:47:41;;;;;;;2.50;1.80;;;14.70;99.90;;;;;;5023089;28;20502;-80
2021/10/01 08:50:11;;;;;;;5.03;1.98;;;15.30;99.90;;;;;;5024173;28;20036;-80
2021/10/01 08:52:37;;;;;;;1.95;1.63;;;15.80;99.90;;;;;;5024555;28;20462;-80
2021/10/01 08:55:06;;;;;;;2.55;1.90;;;16.50;99.90;;;;;;5023896;28;20125;-80
2021/10/01 08:57:32;;;;;;;4.88;2.08;;;16.50;99.90;;;;;;5022319;28;20034;-80
2021/10/01 08:59:58;;;;;;;5.47;1.95;;;15.30;99.90;;;;;;5023308;28;20026;-79
2021/10/01 09:02:25;;;;;;;4.90;1.80;;;14.10;99.90;;;;;;5021444;28;20152;-80
2021/10/01 09:04:55;;;;;;;3.20;1.85;;;14.10;99.90;;;;;;5056588;28;20044;-79
2021/10/01 09:07:23;;;;;;;1.90;1.60;;;14.90;99.90;;;;;;5023944;28;20022;-79
2021/10/01 09:09:52;;;;;;;4.60;1.80;;;15.50;99.90;;;;;;5024656;28;20112;-79
2021/10/01 09:12:17;;;;;;;3.88;1.73;;;15.70;99.90;;;;;;5028522;28;20017;-79
2021/10/01 09:14:48;;;;;;;2.38;1.83;;;15.80;99.90;;;;;;5025591;28;20395;-79
2021/10/01 09:17:19;;;;;;;2.03;1.52;;;16.60;99.90;;;;;;5023324;28;20030;-80
2021/10/01 09:19:46;;;;;;;3.72;1.55;;;17.30;99.90;;;;;;5023065;28;20030;-80
2021/10/01 09:22:36;;;;;;;4.28;1.75;;;16.80;99.90;;;;;;5023013;28;20072;-79
2021/10/01 09:25:08;;;;;;;5.90;1.30;;;16.60;99.90;;;;;;5024115;28;20026;-80
2021/10/01 09:27:37;;;;;;;7.13;1.70;;;18.80;99.90;;;;;;5022744;28;20045;-80
2021/10/01 09:30:04;;;;;;;3.92;1.60;;;18.70;99.90;;;;;;5024332;28;20025;-79
2021/10/01 09:32:30;;;;;;;3.53;1.50;;;18.20;99.90;;;;;;5022047;28;20114;-80
2021/10/01 09:34:55;;;;;;;4.28;1.58;;;17.00;99.90;;;;;;5023978;28;20034;-80
2021/10/01 09:37:27;;;;;;;4.95;1.50;;;16.40;99.90;;;;;;5021933;28;20037;-81
2021/10/01 09:39:56;;;;;;;2.85;1.55;;;16.80;99.90;;;;;;5025633;28;20033;-81
2021/10/01 09:42:24;;;;;;;2.88;1.65;;;17.80;99.90;;;;;;5024211;28;20037;-81
2021/10/01 09:44:55;;;;;;;3.70;1.83;;;18.70;99.90;;;;;;5025705;28;20030;-81
2021/10/01 09:47:30;;;;;;;1.98;1.40;;;19.00;99.90;;;;;;5024661;28;20021;-79
2021/10/01 09:49:58;;;;;;;1.85;1.35;;;19.00;99.90;;;;;;5024578;28;20029;-79
2021/10/01 09:52:24;;;;;;;3.92;1.35;;;19.80;99.90;;;;;;5021685;28;20484;-78
2021/10/01 09:55:06;;;;;;;3.78;1.95;;;20.20;99.40;;;;;;5023292;28;20030;-78
2021/10/01 09:57:32;;;;;;;3.75;1.52;;;20.50;98.50;;;;;;5032447;28;20030;-79
2021/10/01 09:59:58;;;;;;;2.80;1.95;;;20.20;99.70;;;;;;5041458;28;20057;-80
2021/10/01 10:02:23;;;;;;;2.97;2.70;;;21.20;98.90;;;;;;5039796;28;20026;-81
2021/10/01 10:04:54;;;;;;;5.45;2.05;;;20.40;99.90;;;;;;5040040;28;20053;-80
2021/10/01 10:07:27;;;;;;;2.40;2.20;;;20.70;98.50;;;;;;5042252;28;20026;-80
2021/10/01 10:09:54;;;;;;;5.22;1.70;;;20.60;98.90;;;;;;5041718;28;20046;-81
2021/10/01 10:12:42;;;;;;;2.72;1.75;;;21.60;97.00;;;;;;5046125;28;20024;-81
2021/10/01 10:15:17;;;;;;;3.45;1.88;;;22.30;96.10;;;;;;5048436;28;20017;-80
2021/10/01 10:17:50;;;;;;;3.03;2.03;;;21.90;95.30;;;;;;5080284;28;20056;-82
2021/10/01 10:20:18;;;;;;;3.00;1.10;;;22.10;95.30;;;;;;5046647;28;20038;-82
2021/10/01 10:22:44;;;;;;;2.40;1.10;;;24.30;93.00;;;;;;5044722;28;20057;-81
2021/10/01 10:25:10;;;;;;;5.55;1.40;;;23.70;92.30;;;;;;5043429;28;20029;-82
2021/10/01 10:27:36;;;;;;;2.72;1.20;;;23.50;92.40;;;;;;5041450;28;20041;-82
2021/10/01 10:30:07;;;;;;;1.45;1.20;;;24.30;90.20;;;;;;5041693;28;20087;-82
2021/10/01 10:32:33;;;;;;;2.40;1.40;;;25.30;87.40;;;;;;5041537;28;20017;-81
2021/10/01 10:35:01;;;;;;;3.33;1.05;;;23.90;89.80;;;;;;5043435;28;20029;-81
2021/10/01 10:37:42;;;;;;;2.88;1.20;;;22.00;91.80;;;;;;5047501;28;20056;-82
2021/10/01 10:40:16;;;;;;;4.60;1.55;;;22.70;93.90;;;;;;5044932;28;20064;-81
2021/10/01 10:42:46;;;;;;;3.80;0.90;;;24.00;92.70;;;;;;5047071;28;20101;-81
2021/10/01 10:45:21;;;;;;;3.97;1.20;;;25.50;88.00;;;;;;5042489;28;20109;-79
2021/10/01 10:47:48;;;;;;;4.90;1.52;;;26.40;85.90;;;;;;5044378;28;20035;-82
2021/10/01 10:50:24;;;;;;;5.03;1.20;;;24.80;88.30;;;;;;5044506;28;20034;-79
2021/10/01 10:53:15;;;;;;;3.80;1.40;;;24.50;90.20;;;;;;5046063;28;20029;-80
2021/10/01 10:55:53;;;;;;;3.22;1.15;;;26.20;87.40;;;;;;5045200;28;20052;-80
2021/10/01 10:58:31;;;;;;;3.28;1.20;;;27.30;82.10;;;;;;5043188;28;20026;-79
2021/10/01 11:01:02;;;;;;;2.88;1.20;;;26.90;81.10;;;;;;5044040;28;20017;-78
2021/10/01 11:03:33;;;;;;;2.83;1.00;;;26.20;82.60;;;;;;5043395;28;20030;-78
2021/10/01 11:06:13;;;;;;;3.88;1.15;;;25.70;80.90;;;;;;5042103;28;20018;-80
2021/10/01 11:09:09;;;;;;;3.08;0.90;;;26.70;83.90;;;;;;5043470;28;20332;-80
2021/10/01 11:11:40;;;;;;;5.65;1.30;;;26.10;80.10;;;;;;5035154;28;20045;-78
2021/10/01 11:14:28;;;;;;;3.17;1.10;;;25.50;84.20;;;;;;5043875;28;20049;-79
2021/10/01 11:16:54;;;;;;;2.25;1.17;;;27.60;79.50;;;;;;5041311;28;20557;-78
2021/10/01 11:19:44;;;;;;;2.05;1.27;;;25.20;80.70;;;;;;5031050;28;20018;-80
2021/10/01 11:22:31;;;;;;;3.13;0.90;;;25.60;82.10;;;;;;5025363;28;20136;-79
2021/10/01 11:25:00;;;;;;;2.05;1.02;;;26.90;81.40;;;;;;5028694;28;20022;-80
2021/10/01 11:27:26;;;;;;;2.40;1.33;;;27.80;78.80;;;;;;5030340;28;20034;-80
2021/10/01 11:29:52;;;;;;;1.90;0.80;;;27.30;78.20;;;;;;5030853;28;20037;-81
2021/10/01 11:32:19;;;;;;;2.28;1.10;;;26.90;76.40;;;;;;5030902;28;20109;-81
2021/10/01 11:34:46;;;;;;;4.68;1.38;;;27.20;77.60;;;;;;5030252;28;20093;-81
2021/10/01 11:37:21;;;;;;;3.83;1.00;;;29.10;76.00;;;;;;5032330;28;20037;-81
2021/10/01 11:39:47;;;;;;;2.83;1.00;;;30.10;73.60;;;;;;5030242;28;20041;-80
2021/10/01 11:42:30;;;;;;;3.90;1.15;;;30.80;71.40;;;;;;5032347;28;20113;-81
2021/10/01 11:45:04;;;;;;;3.97;1.20;;;29.70;71.00;;;;;;5030596;28;20716;-81
2021/10/01 11:47:30;;;;;;;5.07;0.85;;;29.30;70.00;;;;;;5027274;28;20021;-79
2021/10/01 11:49:58;;;;;;;3.17;1.20;;;27.60;71.60;;;;;;5025034;28;20456;-81
2021/10/01 11:52:26;;;;;;;2.00;1.15;;;24.80;78.20;;;;;;5025853;28;20444;-82
2021/10/01 11:54:56;;;;;;;2.97;1.30;;;26.20;79.00;;;;;;5025632;28;20442;-82
2021/10/01 11:57:23;;;;;;;2.47;0.80;;;27.80;74.40;;;;;;5025413;28;20376;-82
2021/10/01 12:00:04;;;;;;;3.10;0.82;;;28.40;72.40;;;;;;5024989;28;20026;-81
2021/10/01 12:02:35;;;;;;;2.10;1.10;;;29.60;71.50;;;;;;5026115;28;20045;-81
2021/10/01 12:05:32;;;;;;;3.42;1.33;;;29.80;68.30;;;;;;5025916;28;20049;-79
2021/10/01 12:08:10;;;;;;;1.30;1.20;;;30.50;70.20;;;;;;5016782;28;20076;-81
2021/10/01 12:10:40;;;;;;;3.78;0.88;;;30.40;68.60;;;;;;5029489;28;20088;-81
2021/10/01 12:13:08;;;;;;;3.03;1.00;;;30.70;64.90;;;;;;5025354;28;20029;-82
2021/10/01 12:15:34;;;;;;;2.95;0.90;;;30.00;66.90;;;;;;5023861;28;20057;-82
2021/10/01 12:18:00;;;;;;;3.55;0.90;;;30.20;66.90;;;;;;5023845;28;20034;-82
2021/10/01 12:20:25;;;;;;;1.38;0.90;;;31.50;64.80;;;;;;5024080;28;20053;-80
2021/10/01 12:22:51;;;;;;;1.20;1.00;;;31.60;62.20;;;;;;5035834;28;20034;-81
2021/10/01 12:25:25;;;;;;;2.30;0.90;;;30.70;63.40;;;;;;5023817;28;20025;-81
2021/10/01 12:27:50;;;;;;;3.63;1.10;;;29.40;65.50;;;;;;5023670;28;20065;-81
2021/10/01 12:30:16;;;;;;;3.58;1.08;;;29.30;63.70;;;;;;5023766;28;20048;-80
2021/10/01 12:32:45;;;;;;;3.13;0.93;;;30.30;63.30;;;;;;5024802;28;20104;-81
2021/10/01 12:35:13;;;;;;;1.83;1.00;;;30.60;62.20;;;;;;5022476;28;20487;-82
2021/10/01 12:37:43;;;;;;;2.00;1.00;;;28.20;67.20;;;;;;5024427;28;20025;-81
2021/10/01 12:40:12;;;;;;;3.78;0.93;;;29.20;68.70;;;;;;5023562;28;20091;-81
2021/10/01 12:42:39;;;;;;;2.58;1.10;;;30.20;62.60;;;;;;5025094;28;20427;-80
2021/10/01 12:45:17;;;;;;;1.75;1.10;;;30.10;61.80;;;;;;5024303;28;20063;-81
2021/10/01 12:47:45;;;;;;;1.60;1.50;;;30.50;62.60;;;;;;5024057;28;20024;-82
2021/10/01 12:50:17;;;;;;;2.00;1.25;;;32.40;59.90;;;;;;5023564;28;20480;-81
2021/10/01 12:52:45;;;;;;;2.15;1.30;;;32.70;57.80;;;;;;5024515;28;20076;-82
2021/10/01 12:55:15;;;;;;;3.20;1.13;;;31.60;58.50;;;;;;5023182;28;20033;-82
2021/10/01 12:57:45;;;;;;;4.50;1.40;;;31.50;59.00;;;;;;5024943;28;20056;-81
2021/10/01 13:00:16;;;;;;;3.58;1.30;;;30.90;60.70;;;;;;5025076;28;20056;-81
2021/10/01 13:03:03;;;;;;;1.95;1.23;;;30.60;61.50;;;;;;5024942;28;20903;-81
2021/10/01 13:05:37;;;;;;;1.50;1.40;;;31.20;59.60;;;;;;5023720;28;20033;-80
2021/10/01 13:08:03;;;;;;;2.08;1.58;;;30.40;59.60;;;;;;5032216;28;20029;-79
2021/10/01 13:10:40;;;;;;;3.05;1.65;;;29.70;62.60;;;;;;5035555;28;20060;-79
2021/10/01 13:13:11;;;;;;;2.70;1.67;;;30.00;59.80;;;;;;5027396;28;20025;-80
2021/10/01 13:15:37;;;;;;;4.65;1.63;;;30.50;59.60;;;;;;5026938;28;20021;-80
2021/10/01 13:18:09;;;;;;;2.17;1.55;;;30.20;61.90;;;;;;5026571;28;20786;-80
2021/10/01 13:20:39;;;;;;;3.63;1.50;;;31.40;59.90;;;;;;5026831;28;20069;-82
2021/10/01 13:23:13;;;;;;;1.70;1.33;;;31.30;59.30;;;;;;5025121;28;20021;-82
2021/10/01 13:25:48;;;;;;;1.70;1.20;;;30.80;57.90;;;;;;5055826;28;20030;-83
2021/10/01 13:28:17;;;;;;;1.77;1.58;;;30.70;60.00;;;;;;5024405;28;20041;-83
2021/10/01 13:30:44;;;;;;;3.10;1.75;;;32.20;58.00;;;;;;5022583;28;20021;-82
2021/10/01 13:33:09;;;;;;;2.05;1.55;;;32.30;56.50;;;;;;5022817;28;20087;-81
2021/10/01 13:35:36;;;;;;;3.85;1.75;;;33.10;55.90;;;;;;5016960;28;20077;-82
2021/10/01 13:38:02;;;;;;;1.65;1.55;;;31.80;56.20;;;;;;5031651;28;20057;-79
2021/10/01 13:40:28;;;;;;;2.45;1.50;;;31.90;57.30;;;;;;5042712;28;20013;-79
2021/10/01 13:42:54;;;;;;;3.13;1.70;;;32.90;57.20;;;;;;5036453;28;20022;-83
2021/10/01 13:45:19;;;;;;;2.70;1.60;;;32.50;54.10;;;;;;5026016;28;20113;-82
2021/10/01 13:47:45;;;;;;;3.63;2.00;;;31.80;55.70;;;;;;5026052;28;20054;-83
2021/10/01 13:50:12;;;;;;;1.90;1.65;;;32.20;58.10;;;;;;5024973;28;20537;-83
2021/10/01 13:52:38;;;;;;;1.60;1.50;;;31.40;56.40;;;;;;5024692;28;20022;-82
2021/10/01 13:55:06;;;;;;;2.10;1.80;;;29.60;61.60;;;;;;5023895;28;20064;-82
2021/10/01 13:57:31;;;;;;;3.65;1.45;;;30.80;59.30;;;;;;5024427;28;20041;-85
2021/10/01 13:59:57;;;;;;;5.43;2.10;;;31.40;57.10;;;;;;5021129;28;20052;-83
2021/10/01 14:02:23;;;;;;;1.95;1.85;;;29.90;58.70;;;;;;5020933;28;20025;-83
2021/10/01 14:04:49;;;;;;;2.65;1.90;;;30.50;59.90;;;;;;5017561;28;20479;-84
2021/10/01 14:07:15;;;;;;;7.05;2.13;;;31.30;57.40;;;;;;5020958;28;20026;-84
2021/10/01 14:09:41;;;;;;;2.97;2.17;;;30.90;57.60;;;;;;5019589;28;20045;-84
2021/10/01 14:12:07;;;;;;;1.85;1.70;;;30.50;59.50;;;;;;5021128;28;20025;-84
2021/10/01 14:14:32;;;;;;;5.88;1.52;;;31.00;60.00;;;;;;5017773;28;20030;-84
2021/10/01 14:16:58;;;;;;;3.83;2.15;;;32.10;57.10;;;;;;5019623;28;20030;-85
2021/10/01 14:19:24;;;;;;;2.35;1.80;;;32.80;56.40;;;;;;5017186;28;20076;-84
2021/10/01 14:21:49;;;;;;;2.30;2.05;;;30.90;58.90;;;;;;5018289;28;20018;-84
2021/10/01 14:24:15;;;;;;;5.82;1.95;;;31.20;57.20;;;;;;5021045;28;20036;-85
2021/10/01 14:26:41;;;;;;;2.50;2.30;;;32.60;58.30;;;;;;5020621;28;20048;-84
2021/10/01 14:29:06;;;;;;;2.42;2.10;;;32.70;55.30;;;;;;5021950;28;20041;-85